createdAt,value
2022-09-01T00:01:47.850Z,22.18
2022-09-01T00:04:18.344Z,22.14
2022-09-01T00:06:46.617Z,22.10
2022-09-01T00:09:17.053Z,22.11
2022-09-01T00:11:50.351Z,22.12
2022-09-01T00:14:30.421Z,22.13
2022-09-01T00:17:00.201Z,22.14
2022-09-01T00:19:29.762Z,22.07
2022-09-01T00:21:57.924Z,21.97
2022-09-01T00:24:26.973Z,21.85
2022-09-01T00:26:55.430Z,21.82
2022-09-01T00:29:25.290Z,21.84
2022-09-01T00:31:53.608Z,21.85
2022-09-01T00:34:21.659Z,21.77
2022-09-01T00:36:50.426Z,21.68
2022-09-01T00:39:18.412Z,21.63
2022-09-01T00:41:47.550Z,21.60
2022-09-01T00:44:16.871Z,21.57
2022-09-01T00:46:47.608Z,21.55
2022-09-01T00:49:35.295Z,21.50
2022-09-01T00:52:41.670Z,21.48
2022-09-01T00:55:18.179Z,21.45
2022-09-01T00:57:46.501Z,21.40
2022-09-01T01:00:14.675Z,21.37
2022-09-01T01:02:42.850Z,21.36
2022-09-01T01:05:15.321Z,21.36
2022-09-01T01:07:48.057Z,21.39
2022-09-01T01:10:18.151Z,21.36
2022-09-01T01:12:47.182Z,21.30
2022-09-01T01:15:15.483Z,21.25
2022-09-01T01:17:43.569Z,21.22
2022-09-01T01:20:32.773Z,21.21
2022-09-01T01:23:05.769Z,21.15
2022-09-01T01:25:42.564Z,21.11
2022-09-01T01:28:11.310Z,21.11
2022-09-01T01:30:41.930Z,21.08
2022-09-01T01:33:10.288Z,21.05
2022-09-01T01:35:40.138Z,21.02
2022-09-01T01:38:09.190Z,20.99
2022-09-01T01:40:38.552Z,20.98
2022-09-01T01:43:07.184Z,21.00
2022-09-01T01:45:35.221Z,21.02
2022-09-01T01:48:08.846Z,21.03
2022-09-01T01:50:37.971Z,21.05
2022-09-01T01:53:10.889Z,21.04
2022-09-01T01:55:41.906Z,21.03
2022-09-01T01:58:12.530Z,21.03
2022-09-01T02:00:44.661Z,21.06
2022-09-01T02:03:17.362Z,21.09
2022-09-01T02:05:50.033Z,21.09
2022-09-01T02:08:21.957Z,21.05
2022-09-01T02:10:51.243Z,21.05
2022-09-01T02:13:23.105Z,21.05
2022-09-01T02:15:53.940Z,20.96
2022-09-01T02:18:27.889Z,20.92
2022-09-01T02:20:59.614Z,20.88
2022-09-01T02:23:28.021Z,20.85
2022-09-01T02:26:17.519Z,20.85
2022-09-01T02:28:55.582Z,20.89
2022-09-01T02:31:28.362Z,20.91
2022-09-01T02:33:58.807Z,20.86
2022-09-01T02:36:27.090Z,20.82
2022-09-01T02:38:56.858Z,20.80
2022-09-01T02:41:27.469Z,20.80
2022-09-01T02:43:55.611Z,20.74
2022-09-01T02:46:24.945Z,20.72
2022-09-01T02:48:53.794Z,20.70
2022-09-01T02:51:23.809Z,20.63
2022-09-01T02:53:53.012Z,20.62
2022-09-01T02:56:25.447Z,20.61
2022-09-01T02:58:54.143Z,20.62
2022-09-01T03:01:29.585Z,20.64
2022-09-01T03:03:59.928Z,20.64
2022-09-01T03:06:28.405Z,20.64
2022-09-01T03:08:59.883Z,20.65
2022-09-01T03:11:32.502Z,20.66
2022-09-01T03:14:01.020Z,20.67
2022-09-01T03:16:30.803Z,20.66
2022-09-01T03:18:59.464Z,20.58
2022-09-01T03:21:27.312Z,20.52
2022-09-01T03:23:56.091Z,20.45
2022-09-01T03:26:24.745Z,20.44
2022-09-01T03:28:52.642Z,20.41
2022-09-01T03:31:20.680Z,20.32
2022-09-01T03:33:52.774Z,20.25
2022-09-01T03:36:24.965Z,20.20
2022-09-01T03:38:53.274Z,20.16
2022-09-01T03:41:25.075Z,20.14
2022-09-01T03:43:58.505Z,20.16
2022-09-01T03:46:36.426Z,20.13
2022-09-01T03:49:07.479Z,20.11
2022-09-01T03:51:39.108Z,20.03
2022-09-01T03:54:09.257Z,19.99
2022-09-01T03:56:41.102Z,19.91
2022-09-01T03:59:17.236Z,19.84
2022-09-01T04:01:46.132Z,19.83
2022-09-01T04:04:14.923Z,19.80
2022-09-01T04:06:44.879Z,19.79
2022-09-01T04:09:14.418Z,19.75
2022-09-01T04:11:46.966Z,19.73
2022-09-01T04:14:17.292Z,19.67
2022-09-01T04:17:05.365Z,19.59
2022-09-01T04:19:36.865Z,19.55
2022-09-01T04:22:05.336Z,19.63
2022-09-01T04:24:45.913Z,19.67
2022-09-01T04:27:14.938Z,19.67
2022-09-01T04:29:46.823Z,19.62
2022-09-01T04:32:15.980Z,19.62
2022-09-01T04:34:49.839Z,19.68
2022-09-01T04:37:20.434Z,19.67
2022-09-01T04:39:57.088Z,19.67
2022-09-01T04:42:29.081Z,19.76
2022-09-01T04:44:58.488Z,19.88
2022-09-01T04:47:36.269Z,19.94
2022-09-01T04:50:14.861Z,19.95
2022-09-01T04:53:04.988Z,20.03
2022-09-01T04:55:38.991Z,20.12
2022-09-01T04:58:10.062Z,20.21
2022-09-01T05:00:38.882Z,20.19
2022-09-01T05:03:08.047Z,20.22
2022-09-01T05:05:57.499Z,20.18
2022-09-01T05:08:25.935Z,20.06
2022-09-01T05:10:57.165Z,20.02
2022-09-01T05:13:48.119Z,20.03
2022-09-01T05:16:24.810Z,19.97
2022-09-01T05:18:57.343Z,19.98
2022-09-01T05:21:29.693Z,19.97
2022-09-01T05:24:01.417Z,20.03
2022-09-01T05:26:31.754Z,20.04
2022-09-01T05:29:01.780Z,20.07
2022-09-01T05:31:35.250Z,20.09
2022-09-01T05:34:04.740Z,20.11
2022-09-01T05:36:33.574Z,20.15
2022-09-01T05:39:02.615Z,20.24
2022-09-01T05:41:30.485Z,20.28
2022-09-01T05:44:00.829Z,20.33
2022-09-01T05:46:30.177Z,20.39
2022-09-01T05:49:00.529Z,20.47
2022-09-01T05:51:45.789Z,20.57
2022-09-01T05:54:16.956Z,20.65
2022-09-01T05:56:45.904Z,20.66
2022-09-01T05:59:23.076Z,20.63
2022-09-01T06:01:54.329Z,20.62
2022-09-01T06:04:23.342Z,20.62
2022-09-01T06:07:08.513Z,20.70
2022-09-01T06:09:40.195Z,20.90
2022-09-01T06:12:09.800Z,21.03
2022-09-01T06:14:38.089Z,21.12
2022-09-01T06:17:11.712Z,21.10
2022-09-01T06:19:40.974Z,21.05
2022-09-01T06:22:10.786Z,21.04
2022-09-01T06:24:43.566Z,21.15
2022-09-01T06:27:13.246Z,21.17
2022-09-01T06:29:41.816Z,21.07
2022-09-01T06:32:10.600Z,21.08
2022-09-01T06:34:40.386Z,21.10
2022-09-01T06:37:08.559Z,21.07
2022-09-01T06:39:36.816Z,21.12
2022-09-01T06:42:06.215Z,21.16
2022-09-01T06:44:46.321Z,21.21
2022-09-01T06:47:15.730Z,21.27
2022-09-01T06:49:45.194Z,21.35
2022-09-01T06:52:20.940Z,21.36
2022-09-01T06:54:51.472Z,21.36
2022-09-01T07:00:15.974Z,21.33
2022-09-01T07:02:45.631Z,21.37
2022-09-01T07:08:17.988Z,21.57
2022-09-01T07:14:16.590Z,21.67
2022-09-01T07:16:52.470Z,21.70
2022-09-01T07:19:22.185Z,21.72
2022-09-01T07:22:07.006Z,21.75
2022-09-01T07:24:36.482Z,21.82
2022-09-01T07:27:35.970Z,21.88
2022-09-01T07:30:09.668Z,21.82
2022-09-01T07:32:44.080Z,21.78
2022-09-01T07:35:20.249Z,21.80
2022-09-01T07:38:48.407Z,21.74
2022-09-01T07:43:45.755Z,21.71
2022-09-01T07:46:37.056Z,21.73
2022-09-01T07:51:57.157Z,21.65
2022-09-01T07:54:27.626Z,21.76
2022-09-01T07:56:57.430Z,21.85
2022-09-01T07:59:28.677Z,21.92
2022-09-01T08:02:06.643Z,21.94
2022-09-01T08:04:34.759Z,21.95
2022-09-01T08:07:04.234Z,21.99
2022-09-01T08:09:37.451Z,22.02
2022-09-01T08:12:07.876Z,22.04
2022-09-01T08:14:40.836Z,22.12
2022-09-01T08:17:17.514Z,22.15
2022-09-01T08:19:59.827Z,22.25
2022-09-01T08:22:46.593Z,22.35
2022-09-01T08:25:32.742Z,22.26
2022-09-01T08:28:01.557Z,22.18
2022-09-01T08:30:32.597Z,22.14
2022-09-01T08:33:10.152Z,22.11
2022-09-01T08:35:40.786Z,22.21
2022-09-01T08:38:09.480Z,22.25
2022-09-01T08:40:38.097Z,22.25
2022-09-01T08:43:15.678Z,22.29
2022-09-01T08:45:47.865Z,22.21
2022-09-01T08:49:23.838Z,22.29
2022-09-01T08:51:22.926Z,22.28
2022-09-01T08:54:29.840Z,22.18
2022-09-01T08:57:09.348Z,22.10
2022-09-01T08:59:57.807Z,22.12
2022-09-01T09:02:51.057Z,22.14
2022-09-01T09:05:25.536Z,21.99
2022-09-01T09:08:11.212Z,21.93
2022-09-01T09:10:39.130Z,21.99
2022-09-01T09:13:36.731Z,22.01
2022-09-01T09:16:08.830Z,22.07
2022-09-01T09:19:00.609Z,22.13
2022-09-01T09:21:30.105Z,22.16
2022-09-01T09:24:21.728Z,22.20
2022-09-01T09:26:51.152Z,22.27
2022-09-01T09:29:20.865Z,22.29
2022-09-01T09:31:50.758Z,22.26
2022-09-01T09:34:39.775Z,22.28
2022-09-01T09:37:23.168Z,22.30
2022-09-01T09:40:11.811Z,22.34
2022-09-01T09:42:40.953Z,22.37
2022-09-01T09:45:23.182Z,22.41
2022-09-01T09:47:51.877Z,22.33
2022-09-01T09:50:28.188Z,22.25
2022-09-01T09:53:14.732Z,22.21
2022-09-01T09:55:56.214Z,22.17
2022-09-01T09:58:26.665Z,22.15
2022-09-01T10:01:03.738Z,22.16
2022-09-01T10:03:42.027Z,22.16
2022-09-01T10:06:11.163Z,22.20
2022-09-01T10:08:45.449Z,22.25
2022-09-01T10:11:35.656Z,22.22
2022-09-01T10:14:13.755Z,22.27
2022-09-01T10:16:53.861Z,22.30
2022-09-01T10:19:22.929Z,22.34
2022-09-01T10:21:51.229Z,22.34
2022-09-01T10:24:30.900Z,22.31
2022-09-01T10:27:25.242Z,22.27
2022-09-01T10:30:13.569Z,22.21
2022-09-01T10:32:56.028Z,22.13
2022-09-01T10:35:30.102Z,22.11
2022-09-01T10:37:59.422Z,22.12
2022-09-01T10:40:31.058Z,22.16
2022-09-01T10:43:05.391Z,22.20
2022-09-01T10:45:35.816Z,22.19
2022-09-01T10:48:51.976Z,22.17
2022-09-01T10:51:10.108Z,22.17
2022-09-01T10:53:52.943Z,22.14
2022-09-01T10:56:28.868Z,22.07
2022-09-01T11:01:51.808Z,22.03
2022-09-01T11:04:41.349Z,22.00
2022-09-01T11:07:32.735Z,21.97
2022-09-01T11:10:33.676Z,21.95
2022-09-01T11:13:08.341Z,21.98
2022-09-01T11:15:40.762Z,21.92
2022-09-01T11:18:10.571Z,21.86
2022-09-01T11:20:43.097Z,21.83
2022-09-01T11:23:23.693Z,21.89
2022-09-01T11:28:42.092Z,21.86
2022-09-01T11:31:09.983Z,21.79
2022-09-01T11:33:56.811Z,21.75
2022-09-01T11:36:29.834Z,21.72
2022-09-01T11:39:16.236Z,21.76
2022-09-01T11:41:45.871Z,21.77
2022-09-01T11:44:30.806Z,21.77
2022-09-01T11:47:02.217Z,21.83
2022-09-01T11:49:29.968Z,21.75
2022-09-01T11:51:59.605Z,21.66
2022-09-01T11:54:28.944Z,21.61
2022-09-01T11:56:56.976Z,21.57
2022-09-01T11:59:35.329Z,21.48
2022-09-01T12:02:04.225Z,21.45
2022-09-01T12:04:35.691Z,21.45
2022-09-01T12:07:14.564Z,21.42
2022-09-01T12:09:43.761Z,21.38
2022-09-01T12:12:29.435Z,21.38
2022-09-01T12:15:06.010Z,21.40
2022-09-01T12:17:35.753Z,21.36
2022-09-01T12:20:28.648Z,21.36
2022-09-01T12:22:58.870Z,21.36
2022-09-01T12:25:28.421Z,21.32
2022-09-01T12:27:57.257Z,21.32
2022-09-01T12:30:26.042Z,21.35
2022-09-01T12:33:22.968Z,21.35
2022-09-01T12:35:43.926Z,21.37
2022-09-01T12:38:21.699Z,21.38
2022-09-01T12:40:51.643Z,21.33
2022-09-01T12:43:28.607Z,21.36
2022-09-01T12:45:59.892Z,21.41
2022-09-01T12:48:33.455Z,21.46
2022-09-01T12:51:03.054Z,21.50
2022-09-01T12:53:36.127Z,21.54
2022-09-01T12:56:28.570Z,21.58
2022-09-01T12:59:04.356Z,21.58
2022-09-01T13:01:33.575Z,21.60
2022-09-01T13:04:10.768Z,21.63
2022-09-01T13:06:38.860Z,21.64
2022-09-01T13:09:07.356Z,21.70
2022-09-01T13:14:24.187Z,21.85
2022-09-01T13:16:52.183Z,21.88
2022-09-01T13:19:27.365Z,21.84
2022-09-01T13:21:56.002Z,21.78
2022-09-01T13:24:28.057Z,21.80
2022-09-01T13:29:46.715Z,21.90
2022-09-01T13:32:18.347Z,21.92
2022-09-01T13:34:50.355Z,21.90
2022-09-01T13:37:19.732Z,21.87
2022-09-01T13:39:48.552Z,21.88
2022-09-01T13:42:17.390Z,21.88
2022-09-01T13:44:48.394Z,21.85
2022-09-01T13:47:33.248Z,21.84
2022-09-01T13:50:19.875Z,21.87
2022-09-01T13:52:54.903Z,21.93
2022-09-01T13:55:25.351Z,21.95
2022-09-01T13:57:55.811Z,21.95
2022-09-01T14:00:25.088Z,21.95
2022-09-01T14:02:54.903Z,21.95
2022-09-01T14:05:24.775Z,21.97
2022-09-01T14:07:52.998Z,21.96
2022-09-01T14:10:21.777Z,21.95
2022-09-01T14:12:50.672Z,21.97
2022-09-01T14:15:23.705Z,21.93
2022-09-01T14:17:56.476Z,21.94
2022-09-01T14:20:26.191Z,21.94
2022-09-01T14:22:55.959Z,21.94
2022-09-01T14:25:24.499Z,21.97
2022-09-01T14:27:53.677Z,22.01
2022-09-01T14:30:24.867Z,22.02
2022-09-01T14:32:55.872Z,22.03
2022-09-01T14:35:26.711Z,22.07
2022-09-01T14:37:54.917Z,22.16
2022-09-01T14:40:24.364Z,22.19
2022-09-01T14:42:53.132Z,22.18
2022-09-01T14:45:26.198Z,22.15
2022-09-01T14:47:56.209Z,22.23
2022-09-01T14:50:25.103Z,22.25
2022-09-01T14:52:55.285Z,22.30
2022-09-01T14:55:24.412Z,22.30
2022-09-01T14:57:52.519Z,22.29
2022-09-01T15:00:20.462Z,22.29
2022-09-01T15:02:48.903Z,22.29
2022-09-01T15:05:17.202Z,22.33
2022-09-01T15:07:45.134Z,22.37
2022-09-01T15:10:24.916Z,22.36
2022-09-01T15:12:54.941Z,22.37
2022-09-01T15:15:23.469Z,22.38
2022-09-01T15:17:51.544Z,22.36
2022-09-01T15:20:38.266Z,22.33
2022-09-01T15:23:06.077Z,22.34
2022-09-01T15:25:34.389Z,22.35
2022-09-01T15:28:02.602Z,22.32
2022-09-01T15:30:31.161Z,22.32
2022-09-01T15:32:59.717Z,22.29
2022-09-01T15:35:29.745Z,22.27
2022-09-01T15:37:58.218Z,22.27
2022-09-01T15:40:27.033Z,22.24
2022-09-01T15:42:57.072Z,22.23
2022-09-01T15:45:25.716Z,22.22
2022-09-01T15:47:53.650Z,22.24
2022-09-01T15:50:22.969Z,22.22
2022-09-01T15:52:57.928Z,22.22
2022-09-01T15:55:30.566Z,22.24
2022-09-01T15:57:58.935Z,22.31
2022-09-01T16:00:27.723Z,22.35
2022-09-01T16:02:57.785Z,22.35
2022-09-01T16:05:26.038Z,22.33
2022-09-01T16:10:30.368Z,22.33
2022-09-01T16:13:01.821Z,22.34
2022-09-01T16:15:30.054Z,22.33
2022-09-01T16:18:21.230Z,22.39
2022-09-01T16:21:18.567Z,22.46
2022-09-01T16:23:49.249Z,22.51
2022-09-01T16:26:18.047Z,22.54
2022-09-01T16:28:50.621Z,22.54
2022-09-01T16:31:25.001Z,22.54
2022-09-01T16:33:56.214Z,22.53
2022-09-01T16:36:26.666Z,22.50
2022-09-01T16:38:59.468Z,22.51
2022-09-01T16:41:44.542Z,22.50
2022-09-01T16:44:15.319Z,22.49
2022-09-01T16:47:03.425Z,22.47
2022-09-01T16:49:34.550Z,22.44
2022-09-01T16:52:07.290Z,22.45
2022-09-01T16:54:55.697Z,22.47
2022-09-01T16:57:28.400Z,22.45
2022-09-01T17:00:00.590Z,22.43
2022-09-01T17:02:31.527Z,22.41
2022-09-01T17:05:03.555Z,22.39
2022-09-01T17:07:49.605Z,22.35
2022-09-01T17:10:17.628Z,22.33
2022-09-01T17:12:53.252Z,22.32
2022-09-01T17:15:31.590Z,22.30
2022-09-01T17:18:08.050Z,22.29
2022-09-01T17:20:40.269Z,22.28
2022-09-01T17:23:12.224Z,22.24
2022-09-01T17:25:51.216Z,22.24
2022-09-01T17:28:25.148Z,22.17
2022-09-01T17:31:14.563Z,22.13
2022-09-01T17:34:02.775Z,22.10
2022-09-01T17:36:49.179Z,22.10
2022-09-01T17:39:29.978Z,22.14
2022-09-01T17:42:04.911Z,22.14
2022-09-01T17:44:45.718Z,22.14
2022-09-01T17:47:39.876Z,22.15
2022-09-01T17:50:14.101Z,22.15
2022-09-01T17:52:42.146Z,22.12
2022-09-01T17:55:21.312Z,22.10
2022-09-01T17:57:49.220Z,22.06
2022-09-01T18:00:23.394Z,22.04
2022-09-01T18:02:58.877Z,22.05
2022-09-01T18:05:28.171Z,22.05
2022-09-01T18:08:01.146Z,22.06
2022-09-01T18:10:39.055Z,22.07
2022-09-01T18:13:10.199Z,22.06
2022-09-01T18:15:45.411Z,22.04
2022-09-01T18:18:26.458Z,22.01
2022-09-01T18:21:01.781Z,22.01
2022-09-01T18:23:31.319Z,22.00
2022-09-01T18:26:05.657Z,21.96
2022-09-01T18:28:33.346Z,21.92
2022-09-01T18:31:05.670Z,21.89
2022-09-01T18:33:44.828Z,21.84
2022-09-01T18:36:17.668Z,21.80
2022-09-01T18:39:03.637Z,21.80
2022-09-01T18:41:52.445Z,21.81
2022-09-01T18:44:23.739Z,21.79
2022-09-01T18:47:03.777Z,21.76
2022-09-01T18:49:37.709Z,21.72
2022-09-01T18:52:22.597Z,21.68
2022-09-01T18:55:04.619Z,21.63
2022-09-01T18:57:42.768Z,21.56
2022-09-01T19:00:19.501Z,21.51
2022-09-01T19:02:53.590Z,21.44
2022-09-01T19:05:33.251Z,21.40
2022-09-01T19:08:07.627Z,21.36
2022-09-01T19:10:43.120Z,21.35
2022-09-01T19:13:14.432Z,21.35
2022-09-01T19:15:46.140Z,21.36
2022-09-01T19:18:17.202Z,21.37
2022-09-01T19:21:04.597Z,21.37
2022-09-01T19:23:46.590Z,21.37
2022-09-01T19:26:21.721Z,21.36
2022-09-01T19:28:49.399Z,21.34
2022-09-01T19:31:21.318Z,21.32
2022-09-01T19:34:01.469Z,21.27
2022-09-01T19:36:38.423Z,21.27
2022-09-01T19:39:08.526Z,21.24
2022-09-01T19:41:40.724Z,21.17
2022-09-01T19:44:27.097Z,21.14
2022-09-01T19:47:07.883Z,21.09
2022-09-01T19:49:42.954Z,21.05
2022-09-01T19:52:18.001Z,20.99
2022-09-01T19:55:15.206Z,20.94
2022-09-01T19:57:50.008Z,20.88
2022-09-01T20:00:32.023Z,20.84
2022-09-01T20:03:21.733Z,20.80
2022-09-01T20:05:52.158Z,20.74
2022-09-01T20:08:25.813Z,20.69
2022-09-01T20:11:12.774Z,20.67
2022-09-01T20:13:46.721Z,20.63
2022-09-01T20:16:35.471Z,20.57
2022-09-01T20:19:06.634Z,20.54
2022-09-01T20:21:40.201Z,20.55
2022-09-01T20:24:28.557Z,20.56
2022-09-01T20:27:15.331Z,20.59
2022-09-01T20:29:55.987Z,20.64
2022-09-01T20:32:30.508Z,20.67
2022-09-01T20:35:16.584Z,20.65
2022-09-01T20:37:50.533Z,20.62
2022-09-01T20:40:24.772Z,20.60
2022-09-01T20:42:52.588Z,20.62
2022-09-01T20:45:22.528Z,20.63
2022-09-01T20:47:54.662Z,20.58
2022-09-01T20:50:46.256Z,20.50
2022-09-01T20:53:14.033Z,20.45
2022-09-01T20:55:48.335Z,20.45
2022-09-01T20:58:27.772Z,20.44
2022-09-01T21:01:17.553Z,20.42
2022-09-01T21:04:06.241Z,20.38
2022-09-01T21:06:50.919Z,20.36
2022-09-01T21:09:24.972Z,20.32
2022-09-01T21:12:11.172Z,20.27
2022-09-01T21:14:38.974Z,20.15
2022-09-01T21:17:21.761Z,20.09
2022-09-01T21:19:50.212Z,20.04
2022-09-01T21:22:22.183Z,20.02
2022-09-01T21:24:50.810Z,20.02
2022-09-01T21:27:20.684Z,19.97
2022-09-01T21:29:48.700Z,19.93
2022-09-01T21:32:17.124Z,19.87
2022-09-01T21:34:46.127Z,19.84
2022-09-01T21:37:14.397Z,19.77
2022-09-01T21:39:42.428Z,19.69
2022-09-01T21:42:12.440Z,19.67
2022-09-01T21:44:40.902Z,19.68
2022-09-01T21:47:08.949Z,19.66
2022-09-01T21:49:36.914Z,19.60
2022-09-01T21:52:05.114Z,19.55
2022-09-01T21:54:34.196Z,19.51
2022-09-01T21:57:02.272Z,19.45
2022-09-01T21:59:30.393Z,19.38
2022-09-01T22:01:58.378Z,19.35
2022-09-01T22:04:26.878Z,19.32
2022-09-01T22:06:55.144Z,19.29
2022-09-01T22:09:23.090Z,19.28
2022-09-01T22:11:51.483Z,19.29
2022-09-01T22:14:20.452Z,19.29
2022-09-01T22:16:49.093Z,19.24
2022-09-01T22:19:17.204Z,19.21
2022-09-01T22:21:48.207Z,19.18
2022-09-01T22:24:19.219Z,19.15
2022-09-01T22:26:48.773Z,19.12
2022-09-01T22:29:18.598Z,19.05
2022-09-01T22:31:46.767Z,18.95
2022-09-01T22:34:14.762Z,18.91
2022-09-01T22:36:44.657Z,18.86
2022-09-01T22:39:13.318Z,18.83
2022-09-01T22:41:41.724Z,18.83
2022-09-01T22:44:10.456Z,18.81
2022-09-01T22:46:38.765Z,18.78
2022-09-01T22:49:06.861Z,18.75
2022-09-01T22:51:37.386Z,18.74
2022-09-01T22:54:05.716Z,18.77
2022-09-01T22:56:35.263Z,18.74
2022-09-01T22:59:05.389Z,18.73
2022-09-01T23:01:35.133Z,18.74
2022-09-01T23:04:05.223Z,18.72
2022-09-01T23:06:34.517Z,18.73
2022-09-01T23:09:02.922Z,18.73
2022-09-01T23:11:30.761Z,18.75
2022-09-01T23:13:59.016Z,18.69
2022-09-01T23:16:27.429Z,18.66
2022-09-01T23:18:55.632Z,18.67
2022-09-01T23:21:27.080Z,18.66
2022-09-01T23:23:58.739Z,18.65
2022-09-01T23:26:28.435Z,18.67
2022-09-01T23:28:57.177Z,18.66
2022-09-01T23:31:27.596Z,18.63
2022-09-01T23:33:55.650Z,18.58
2022-09-01T23:36:25.486Z,18.55
2022-09-01T23:38:53.971Z,18.53
2022-09-01T23:41:23.946Z,18.51
2022-09-01T23:43:52.526Z,18.52
2022-09-01T23:46:25.308Z,18.52
2022-09-01T23:48:54.261Z,18.45
2022-09-01T23:51:22.633Z,18.42
2022-09-01T23:53:52.161Z,18.41
2022-09-01T23:56:21.882Z,18.37
2022-09-01T23:58:50.133Z,18.32
